sensor_id;sensor_type;location;lat;lon;timestamp;temperature;humidity
11944;DHT22;6031;50.220;10.122;2023-04-24T00:01:38;10.80;99.90
11944;DHT22;6031;50.220;10.122;2023-04-24T00:04:05;10.70;99.90
11944;DHT22;6031;50.220;10.122;2023-04-24T00:06:32;10.80;99.90
11944;DHT22;6031;50.220;10.122;2023-04-24T00:09:03;10.80;99.90
11944;DHT22;6031;50.220;10.122;2023-04-24T00:11:29;10.80;99.90
11944;DHT22;6031;50.220;10.122;2023-04-24T00:13:56;10.80;99.90
11944;DHT22;6031;50.220;10.122;2023-04-24T00:16:22;10.80;99.90
11944;DHT22;6031;50.220;10.122;2023-04-24T00:18:47;10.70;99.90
11944;DHT22;6031;50.220;10.122;2023-04-24T00:21:14;10.70;99.90
11944;DHT22;6031;50.220;10.122;2023-04-24T00:23:40;10.70;99.90
11944;DHT22;6031;50.220;10.122;2023-04-24T00:26:05;10.70;99.90
11944;DHT22;6031;50.220;10.122;2023-04-24T00:28:31;10.70;99.90
11944;DHT22;6031;50.220;10.122;2023-04-24T00:30:57;10.60;99.90
11944;DHT22;6031;50.220;10.122;2023-04-24T00:33:22;10.60;99.90
11944;DHT22;6031;50.220;10.122;2023-04-24T00:35:48;10.60;99.90
11944;DHT22;6031;50.220;10.122;2023-04-24T00:38:13;10.60;99.90
11944;DHT22;6031;50.220;10.122;2023-04-24T00:40:39;10.50;99.90
11944;DHT22;6031;50.220;10.122;2023-04-24T00:43:05;10.50;99.90
11944;DHT22;6031;50.220;10.122;2023-04-24T00:45:30;10.60;99.90
11944;DHT22;6031;50.220;10.122;2023-04-24T00:47:56;10.60;99.90
11944;DHT22;6031;50.220;10.122;2023-04-24T00:50:23;10.70;99.90
11944;DHT22;6031;50.220;10.122;2023-04-24T00:52:49;10.70;99.90
11944;DHT22;6031;50.220;10.122;2023-04-24T00:55:15;10.60;99.90
11944;DHT22;6031;50.220;10.122;2023-04-24T00:57:41;10.50;99.90
11944;DHT22;6031;50.220;10.122;2023-04-24T01:00:06;10.60;99.90
11944;DHT22;6031;50.220;10.122;2023-04-24T01:02:36;10.50;99.90
11944;DHT22;6031;50.220;10.122;2023-04-24T01:05:02;10.50;99.90
11944;DHT22;6031;50.220;10.122;2023-04-24T01:07:28;10.50;99.90
11944;DHT22;6031;50.220;10.122;2023-04-24T01:09:54;10.50;99.90
11944;DHT22;6031;50.220;10.122;2023-04-24T01:12:20;10.40;99.90
11944;DHT22;6031;50.220;10.122;2023-04-24T01:14:45;10.40;99.90
11944;DHT22;6031;50.220;10.122;2023-04-24T01:17:11;10.40;99.90
11944;DHT22;6031;50.220;10.122;2023-04-24T01:19:37;10.30;99.90
11944;DHT22;6031;50.220;10.122;2023-04-24T01:22:08;10.30;99.90
11944;DHT22;6031;50.220;10.122;2023-04-24T01:24:33;10.30;99.90
11944;DHT22;6031;50.220;10.122;2023-04-24T01:26:59;10.30;99.90
11944;DHT22;6031;50.220;10.122;2023-04-24T01:29:26;10.30;99.90
11944;DHT22;6031;50.220;10.122;2023-04-24T01:31:52;10.30;99.90
11944;DHT22;6031;50.220;10.122;2023-04-24T01:34:17;10.20;99.90
11944;DHT22;6031;50.220;10.122;2023-04-24T01:36:45;10.20;99.90
11944;DHT22;6031;50.220;10.122;2023-04-24T01:39:11;10.30;99.90
11944;DHT22;6031;50.220;10.122;2023-04-24T01:41:37;10.30;99.90
11944;DHT22;6031;50.220;10.122;2023-04-24T01:44:02;10.30;99.90
11944;DHT22;6031;50.220;10.122;2023-04-24T01:46:29;10.30;99.90
11944;DHT22;6031;50.220;10.122;2023-04-24T01:48:55;10.30;99.90
11944;DHT22;6031;50.220;10.122;2023-04-24T01:51:21;10.30;65.50
11944;DHT22;6031;50.220;10.122;2023-04-24T01:53:47;10.30;36.10
11944;DHT22;6031;50.220;10.122;2023-04-24T01:56:14;10.30;14.70
11944;DHT22;6031;50.220;10.122;2023-04-24T01:58:39;10.30;1.00
11944;DHT22;6031;50.220;10.122;2023-04-24T02:01:06;10.30;1.00
11944;DHT22;6031;50.220;10.122;2023-04-24T02:03:32;10.30;1.00
11944;DHT22;6031;50.220;10.122;2023-04-24T02:05:57;10.30;1.00
11944;DHT22;6031;50.220;10.122;2023-04-24T02:08:23;10.30;1.00
11944;DHT22;6031;50.220;10.122;2023-04-24T02:10:48;10.30;1.00
11944;DHT22;6031;50.220;10.122;2023-04-24T02:13:14;10.30;1.00
11944;DHT22;6031;50.220;10.122;2023-04-24T02:15:39;10.30;1.00
11944;DHT22;6031;50.220;10.122;2023-04-24T02:18:05;10.30;1.00
11944;DHT22;6031;50.220;10.122;2023-04-24T02:20:32;10.30;1.00
11944;DHT22;6031;50.220;10.122;2023-04-24T02:22:59;10.30;1.00
11944;DHT22;6031;50.220;10.122;2023-04-24T02:25:25;10.30;1.00
11944;DHT22;6031;50.220;10.122;2023-04-24T02:27:50;10.30;1.00
11944;DHT22;6031;50.220;10.122;2023-04-24T02:30:16;10.30;1.00
11944;DHT22;6031;50.220;10.122;2023-04-24T02:32:41;10.30;1.00
11944;DHT22;6031;50.220;10.122;2023-04-24T02:35:07;10.30;1.00
11944;DHT22;6031;50.220;10.122;2023-04-24T02:37:33;10.30;1.00
11944;DHT22;6031;50.220;10.122;2023-04-24T02:39:59;10.30;1.00
11944;DHT22;6031;50.220;10.122;2023-04-24T02:42:24;10.30;1.00
11944;DHT22;6031;50.220;10.122;2023-04-24T02:44:50;10.40;1.00
11944;DHT22;6031;50.220;10.122;2023-04-24T02:47:16;10.30;99.90
11944;DHT22;6031;50.220;10.122;2023-04-24T02:49:42;10.30;99.90
11944;DHT22;6031;50.220;10.122;2023-04-24T02:52:07;10.30;99.90
11944;DHT22;6031;50.220;10.122;2023-04-24T02:54:33;10.20;99.90
11944;DHT22;6031;50.220;10.122;2023-04-24T02:56:58;10.20;99.90
11944;DHT22;6031;50.220;10.122;2023-04-24T02:59:24;10.10;1.00
11944;DHT22;6031;50.220;10.122;2023-04-24T03:01:50;10.10;1.00
11944;DHT22;6031;50.220;10.122;2023-04-24T03:04:15;10.00;1.00
11944;DHT22;6031;50.220;10.122;2023-04-24T03:06:41;10.00;1.00
11944;DHT22;6031;50.220;10.122;2023-04-24T03:09:07;10.00;1.00
11944;DHT22;6031;50.220;10.122;2023-04-24T03:11:32;10.00;1.00
11944;DHT22;6031;50.220;10.122;2023-04-24T03:13:58;10.10;1.00
11944;DHT22;6031;50.220;10.122;2023-04-24T03:16:23;10.10;1.00
11944;DHT22;6031;50.220;10.122;2023-04-24T03:18:49;10.20;1.00
11944;DHT22;6031;50.220;10.122;2023-04-24T03:21:15;10.30;99.90
11944;DHT22;6031;50.220;10.122;2023-04-24T03:23:40;10.30;99.90
11944;DHT22;6031;50.220;10.122;2023-04-24T03:26:06;10.30;68.00
11944;DHT22;6031;50.220;10.122;2023-04-24T03:28:31;10.30;1.00
11944;DHT22;6031;50.220;10.122;2023-04-24T03:30:57;10.30;1.00
11944;DHT22;6031;50.220;10.122;2023-04-24T03:33:22;10.30;1.00
11944;DHT22;6031;50.220;10.122;2023-04-24T03:35:48;10.30;1.00
11944;DHT22;6031;50.220;10.122;2023-04-24T03:38:13;10.20;99.90
11944;DHT22;6031;50.220;10.122;2023-04-24T03:40:39;10.20;23.30
11944;DHT22;6031;50.220;10.122;2023-04-24T03:43:04;10.20;24.60
11944;DHT22;6031;50.220;10.122;2023-04-24T03:45:30;10.00;83.40
11944;DHT22;6031;50.220;10.122;2023-04-24T03:47:55;10.00;1.00
11944;DHT22;6031;50.220;10.122;2023-04-24T03:50:21;10.00;99.90
11944;DHT22;6031;50.220;10.122;2023-04-24T03:52:46;9.90;99.90
11944;DHT22;6031;50.220;10.122;2023-04-24T03:55:12;9.80;1.00
11944;DHT22;6031;50.220;10.122;2023-04-24T03:57:40;9.80;1.00
11944;DHT22;6031;50.220;10.122;2023-04-24T04:00:06;9.70;1.00
11944;DHT22;6031;50.220;10.122;2023-04-24T04:02:31;9.70;1.00
11944;DHT22;6031;50.220;10.122;2023-04-24T04:04:57;9.70;1.00
11944;DHT22;6031;50.220;10.122;2023-04-24T04:07:22;9.60;1.00
11944;DHT22;6031;50.220;10.122;2023-04-24T04:09:48;9.60;1.00
11944;DHT22;6031;50.220;10.122;2023-04-24T04:12:13;9.60;1.00
11944;DHT22;6031;50.220;10.122;2023-04-24T04:14:39;9.60;1.00
11944;DHT22;6031;50.220;10.122;2023-04-24T04:17:05;9.60;26.20
11944;DHT22;6031;50.220;10.122;2023-04-24T04:19:30;9.70;12.40
11944;DHT22;6031;50.220;10.122;2023-04-24T04:21:56;9.70;1.00
11944;DHT22;6031;50.220;10.122;2023-04-24T04:24:21;9.80;1.00
11944;DHT22;6031;50.220;10.122;2023-04-24T04:26:48;9.80;1.00
11944;DHT22;6031;50.220;10.122;2023-04-24T04:29:16;9.90;1.00
11944;DHT22;6031;50.220;10.122;2023-04-24T04:31:43;10.00;1.00
11944;DHT22;6031;50.220;10.122;2023-04-24T04:34:08;10.00;1.00
11944;DHT22;6031;50.220;10.122;2023-04-24T04:36:34;10.00;1.00
11944;DHT22;6031;50.220;10.122;2023-04-24T04:39:02;10.10;1.00
11944;DHT22;6031;50.220;10.122;2023-04-24T04:41:28;10.10;1.00
11944;DHT22;6031;50.220;10.122;2023-04-24T04:43:53;10.10;1.00
11944;DHT22;6031;50.220;10.122;2023-04-24T04:46:19;10.20;99.90
11944;DHT22;6031;50.220;10.122;2023-04-24T04:48:45;10.20;1.00
11944;DHT22;6031;50.220;10.122;2023-04-24T04:51:11;10.20;99.90
11944;DHT22;6031;50.220;10.122;2023-04-24T04:53:36;10.30;99.90
11944;DHT22;6031;50.220;10.122;2023-04-24T04:56:02;10.30;99.90
11944;DHT22;6031;50.220;10.122;2023-04-24T04:58:28;10.30;1.00
11944;DHT22;6031;50.220;10.122;2023-04-24T05:00:53;10.40;1.00
11944;DHT22;6031;50.220;10.122;2023-04-24T05:03:19;10.40;1.00
11944;DHT22;6031;50.220;10.122;2023-04-24T05:05:44;10.40;42.60
11944;DHT22;6031;50.220;10.122;2023-04-24T05:08:10;10.40;8.90
11944;DHT22;6031;50.220;10.122;2023-04-24T05:10:35;10.40;99.90
11944;DHT22;6031;50.220;10.122;2023-04-24T05:13:03;10.40;99.90
11944;DHT22;6031;50.220;10.122;2023-04-24T05:15:29;10.50;1.00
11944;DHT22;6031;50.220;10.122;2023-04-24T05:17:55;10.50;1.00
11944;DHT22;6031;50.220;10.122;2023-04-24T05:20:21;10.60;99.90
11944;DHT22;6031;50.220;10.122;2023-04-24T05:22:46;10.60;1.00
11944;DHT22;6031;50.220;10.122;2023-04-24T05:25:12;10.70;1.00
11944;DHT22;6031;50.220;10.122;2023-04-24T05:27:38;10.70;1.00
11944;DHT22;6031;50.220;10.122;2023-04-24T05:30:04;10.80;99.90
11944;DHT22;6031;50.220;10.122;2023-04-24T05:32:30;10.70;99.90
11944;DHT22;6031;50.220;10.122;2023-04-24T05:34:55;10.70;99.90
11944;DHT22;6031;50.220;10.122;2023-04-24T05:37:21;10.70;99.90
11944;DHT22;6031;50.220;10.122;2023-04-24T05:39:46;10.70;1.00
11944;DHT22;6031;50.220;10.122;2023-04-24T05:42:12;10.70;1.00
11944;DHT22;6031;50.220;10.122;2023-04-24T05:44:37;10.70;99.90
11944;DHT22;6031;50.220;10.122;2023-04-24T05:47:03;10.80;1.00
11944;DHT22;6031;50.220;10.122;2023-04-24T05:49:28;10.80;99.90
11944;DHT22;6031;50.220;10.122;2023-04-24T05:51:54;10.60;1.00
11944;DHT22;6031;50.220;10.122;2023-04-24T05:54:19;10.60;1.00
11944;DHT22;6031;50.220;10.122;2023-04-24T05:56:45;10.60;1.00
11944;DHT22;6031;50.220;10.122;2023-04-24T05:59:10;10.70;1.00
11944;DHT22;6031;50.220;10.122;2023-04-24T06:01:36;10.80;1.00
11944;DHT22;6031;50.220;10.122;2023-04-24T06:04:03;10.70;99.90
11944;DHT22;6031;50.220;10.122;2023-04-24T06:06:29;10.80;1.00
11944;DHT22;6031;50.220;10.122;2023-04-24T06:08:54;10.90;99.90
11944;DHT22;6031;50.220;10.122;2023-04-24T06:11:20;11.10;1.00
11944;DHT22;6031;50.220;10.122;2023-04-24T06:13:45;11.40;99.90
11944;DHT22;6031;50.220;10.122;2023-04-24T06:16:11;11.30;1.00
11944;DHT22;6031;50.220;10.122;2023-04-24T06:18:36;11.20;99.90
11944;DHT22;6031;50.220;10.122;2023-04-24T06:21:02;10.90;99.90
11944;DHT22;6031;50.220;10.122;2023-04-24T06:23:27;10.90;1.00
11944;DHT22;6031;50.220;10.122;2023-04-24T06:25:53;10.90;1.00
11944;DHT22;6031;50.220;10.122;2023-04-24T06:28:19;10.90;99.90
11944;DHT22;6031;50.220;10.122;2023-04-24T06:30:44;10.80;1.00
11944;DHT22;6031;50.220;10.122;2023-04-24T06:33:10;11.00;1.00
11944;DHT22;6031;50.220;10.122;2023-04-24T06:35:36;12.00;1.00
11944;DHT22;6031;50.220;10.122;2023-04-24T06:38:03;12.90;22.20
11944;DHT22;6031;50.220;10.122;2023-04-24T06:40:29;13.50;1.00
11944;DHT22;6031;50.220;10.122;2023-04-24T06:42:54;14.40;99.90
11944;DHT22;6031;50.220;10.122;2023-04-24T06:45:20;15.00;82.40
11944;DHT22;6031;50.220;10.122;2023-04-24T06:47:46;15.90;54.40
11944;DHT22;6031;50.220;10.122;2023-04-24T06:50:12;16.20;1.00
11944;DHT22;6031;50.220;10.122;2023-04-24T06:52:37;16.60;1.00
11944;DHT22;6031;50.220;10.122;2023-04-24T06:55:09;16.50;1.00
11944;DHT22;6031;50.220;10.122;2023-04-24T06:57:36;16.70;1.00
11944;DHT22;6031;50.220;10.122;2023-04-24T07:00:03;17.40;1.00
11944;DHT22;6031;50.220;10.122;2023-04-24T07:02:30;18.20;1.00
11944;DHT22;6031;50.220;10.122;2023-04-24T07:04:55;18.30;1.00
11944;DHT22;6031;50.220;10.122;2023-04-24T07:07:22;18.90;1.00
11944;DHT22;6031;50.220;10.122;2023-04-24T07:09:49;16.90;1.00
11944;DHT22;6031;50.220;10.122;2023-04-24T07:12:16;14.80;1.00
11944;DHT22;6031;50.220;10.122;2023-04-24T07:14:42;14.10;99.90
11944;DHT22;6031;50.220;10.122;2023-04-24T07:17:08;13.30;99.90
11944;DHT22;6031;50.220;10.122;2023-04-24T07:19:33;13.50;93.00
11944;DHT22;6031;50.220;10.122;2023-04-24T07:22:00;13.50;99.90
11944;DHT22;6031;50.220;10.122;2023-04-24T07:24:26;13.70;77.70
11944;DHT22;6031;50.220;10.122;2023-04-24T07:26:53;14.10;99.90
11944;DHT22;6031;50.220;10.122;2023-04-24T07:29:19;14.40;1.00
11944;DHT22;6031;50.220;10.122;2023-04-24T07:31:45;15.60;1.00
11944;DHT22;6031;50.220;10.122;2023-04-24T07:34:10;17.00;1.00
11944;DHT22;6031;50.220;10.122;2023-04-24T07:36:36;17.10;1.00
11944;DHT22;6031;50.220;10.122;2023-04-24T07:39:04;16.60;1.00
11944;DHT22;6031;50.220;10.122;2023-04-24T07:41:29;16.40;1.00
11944;DHT22;6031;50.220;10.122;2023-04-24T07:43:55;17.20;1.00
11944;DHT22;6031;50.220;10.122;2023-04-24T07:46:20;16.20;1.00
11944;DHT22;6031;50.220;10.122;2023-04-24T07:48:46;15.40;1.00
11944;DHT22;6031;50.220;10.122;2023-04-24T07:51:14;15.90;1.00
11944;DHT22;6031;50.220;10.122;2023-04-24T07:53:40;15.00;1.00
11944;DHT22;6031;50.220;10.122;2023-04-24T07:56:05;13.60;1.00
11944;DHT22;6031;50.220;10.122;2023-04-24T07:58:31;13.50;1.00
11944;DHT22;6031;50.220;10.122;2023-04-24T08:00:56;13.00;1.00
11944;DHT22;6031;50.220;10.122;2023-04-24T08:03:22;12.60;1.00
11944;DHT22;6031;50.220;10.122;2023-04-24T08:05:47;12.80;1.00
11944;DHT22;6031;50.220;10.122;2023-04-24T08:08:13;12.90;1.00
11944;DHT22;6031;50.220;10.122;2023-04-24T08:10:39;12.90;1.00
11944;DHT22;6031;50.220;10.122;2023-04-24T08:13:05;14.30;1.00
11944;DHT22;6031;50.220;10.122;2023-04-24T08:15:30;14.30;1.00
11944;DHT22;6031;50.220;10.122;2023-04-24T08:17:57;13.90;1.00
11944;DHT22;6031;50.220;10.122;2023-04-24T08:20:22;13.30;1.00
11944;DHT22;6031;50.220;10.122;2023-04-24T08:22:48;12.90;1.00
11944;DHT22;6031;50.220;10.122;2023-04-24T08:25:14;12.90;1.00
11944;DHT22;6031;50.220;10.122;2023-04-24T08:27:39;14.10;1.00
11944;DHT22;6031;50.220;10.122;2023-04-24T08:30:06;15.50;1.00
11944;DHT22;6031;50.220;10.122;2023-04-24T08:32:31;16.70;1.00
11944;DHT22;6031;50.220;10.122;2023-04-24T08:34:58;18.30;1.00
11944;DHT22;6031;50.220;10.122;2023-04-24T08:37:25;20.10;1.00
11944;DHT22;6031;50.220;10.122;2023-04-24T08:39:51;21.50;1.00
11944;DHT22;6031;50.220;10.122;2023-04-24T08:42:17;20.50;1.00
11944;DHT22;6031;50.220;10.122;2023-04-24T08:44:43;19.30;1.00
11944;DHT22;6031;50.220;10.122;2023-04-24T08:47:10;18.30;1.00
11944;DHT22;6031;50.220;10.122;2023-04-24T08:49:36;17.70;1.00
11944;DHT22;6031;50.220;10.122;2023-04-24T08:52:02;16.70;1.00
11944;DHT22;6031;50.220;10.122;2023-04-24T08:54:28;16.20;1.00
11944;DHT22;6031;50.220;10.122;2023-04-24T08:56:58;16.90;1.00
11944;DHT22;6031;50.220;10.122;2023-04-24T08:59:27;16.30;1.00
11944;DHT22;6031;50.220;10.122;2023-04-24T09:01:53;16.60;1.00
11944;DHT22;6031;50.220;10.122;2023-04-24T09:04:20;18.00;1.00
11944;DHT22;6031;50.220;10.122;2023-04-24T09:06:48;17.30;1.00
11944;DHT22;6031;50.220;10.122;2023-04-24T09:09:16;15.70;1.00
11944;DHT22;6031;50.220;10.122;2023-04-24T09:11:42;14.90;1.00
11944;DHT22;6031;50.220;10.122;2023-04-24T09:14:09;14.40;1.00
11944;DHT22;6031;50.220;10.122;2023-04-24T09:16:35;14.40;1.00
11944;DHT22;6031;50.220;10.122;2023-04-24T09:19:01;14.60;1.00
11944;DHT22;6031;50.220;10.122;2023-04-24T09:21:35;14.60;1.00
11944;DHT22;6031;50.220;10.122;2023-04-24T09:24:07;14.30;1.00
11944;DHT22;6031;50.220;10.122;2023-04-24T09:26:35;13.90;1.00
11944;DHT22;6031;50.220;10.122;2023-04-24T09:29:01;13.80;1.00
11944;DHT22;6031;50.220;10.122;2023-04-24T09:31:28;13.70;1.00
11944;DHT22;6031;50.220;10.122;2023-04-24T09:34:01;13.60;1.00
11944;DHT22;6031;50.220;10.122;2023-04-24T09:36:32;13.80;1.00
11944;DHT22;6031;50.220;10.122;2023-04-24T09:39:02;13.90;1.00
11944;DHT22;6031;50.220;10.122;2023-04-24T09:41:28;14.00;1.00
11944;DHT22;6031;50.220;10.122;2023-04-24T09:43:58;14.00;1.00
11944;DHT22;6031;50.220;10.122;2023-04-24T09:46:35;14.20;1.00
11944;DHT22;6031;50.220;10.122;2023-04-24T09:49:14;15.70;1.00
11944;DHT22;6031;50.220;10.122;2023-04-24T09:51:42;16.90;1.00
11944;DHT22;6031;50.220;10.122;2023-04-24T09:54:15;17.10;1.00
11944;DHT22;6031;50.220;10.122;2023-04-24T09:56:50;16.10;1.00
11944;DHT22;6031;50.220;10.122;2023-04-24T09:59:19;16.40;1.00
11944;DHT22;6031;50.220;10.122;2023-04-24T10:01:45;17.80;1.00
11944;DHT22;6031;50.220;10.122;2023-04-24T10:04:23;18.10;1.00
11944;DHT22;6031;50.220;10.122;2023-04-24T10:06:50;17.20;1.00
11944;DHT22;6031;50.220;10.122;2023-04-24T10:09:17;16.00;1.00
11944;DHT22;6031;50.220;10.122;2023-04-24T10:11:44;15.70;1.00
11944;DHT22;6031;50.220;10.122;2023-04-24T10:14:18;14.90;1.00
11944;DHT22;6031;50.220;10.122;2023-04-24T10:16:45;14.60;1.00
11944;DHT22;6031;50.220;10.122;2023-04-24T10:19:12;14.10;1.00
11944;DHT22;6031;50.220;10.122;2023-04-24T10:21:40;14.00;1.00
11944;DHT22;6031;50.220;10.122;2023-04-24T10:24:08;13.90;1.00
11944;DHT22;6031;50.220;10.122;2023-04-24T10:26:35;13.80;1.00
11944;DHT22;6031;50.220;10.122;2023-04-24T10:29:01;13.60;1.00
11944;DHT22;6031;50.220;10.122;2023-04-24T10:31:30;13.40;1.00
11944;DHT22;6031;50.220;10.122;2023-04-24T10:33:56;13.10;1.00
11944;DHT22;6031;50.220;10.122;2023-04-24T10:36:23;13.50;1.00
11944;DHT22;6031;50.220;10.122;2023-04-24T10:38:53;13.80;1.00
11944;DHT22;6031;50.220;10.122;2023-04-24T10:41:20;13.60;1.00
11944;DHT22;6031;50.220;10.122;2023-04-24T10:46:30;12.60;1.00
11944;DHT22;6031;50.220;10.122;2023-04-24T10:48:55;12.40;1.00
11944;DHT22;6031;50.220;10.122;2023-04-24T10:51:24;12.40;1.00
11944;DHT22;6031;50.220;10.122;2023-04-24T10:53:51;12.50;1.00
11944;DHT22;6031;50.220;10.122;2023-04-24T10:56:17;12.70;1.00
11944;DHT22;6031;50.220;10.122;2023-04-24T10:58:50;13.00;1.00
11944;DHT22;6031;50.220;10.122;2023-04-24T11:01:28;12.60;1.00
11944;DHT22;6031;50.220;10.122;2023-04-24T11:03:56;12.40;1.00
11944;DHT22;6031;50.220;10.122;2023-04-24T11:06:36;12.40;1.00
11944;DHT22;6031;50.220;10.122;2023-04-24T11:09:15;12.20;1.00
11944;DHT22;6031;50.220;10.122;2023-04-24T11:11:45;12.30;1.00
11944;DHT22;6031;50.220;10.122;2023-04-24T11:14:14;12.40;1.00
11944;DHT22;6031;50.220;10.122;2023-04-24T11:16:53;12.40;1.00
11944;DHT22;6031;50.220;10.122;2023-04-24T11:19:24;12.40;1.00
11944;DHT22;6031;50.220;10.122;2023-04-24T11:22:00;12.60;1.00
11944;DHT22;6031;50.220;10.122;2023-04-24T11:32:29;15.10;1.00
11944;DHT22;6031;50.220;10.122;2023-04-24T11:37:33;16.00;1.00
11944;DHT22;6031;50.220;10.122;2023-04-24T11:39:59;15.90;1.00
11944;DHT22;6031;50.220;10.122;2023-04-24T11:42:25;15.60;1.00
11944;DHT22;6031;50.220;10.122;2023-04-24T11:44:55;15.00;1.00
11944;DHT22;6031;50.220;10.122;2023-04-24T11:47:28;15.10;1.00
11944;DHT22;6031;50.220;10.122;2023-04-24T11:49:54;15.30;1.00
11944;DHT22;6031;50.220;10.122;2023-04-24T11:52:19;16.20;1.00
11944;DHT22;6031;50.220;10.122;2023-04-24T11:54:49;17.80;1.00
11944;DHT22;6031;50.220;10.122;2023-04-24T11:57:16;17.50;1.00
11944;DHT22;6031;50.220;10.122;2023-04-24T11:59:42;17.10;1.00
11944;DHT22;6031;50.220;10.122;2023-04-24T12:02:07;16.30;1.00
11944;DHT22;6031;50.220;10.122;2023-04-24T12:04:42;15.80;1.00
11944;DHT22;6031;50.220;10.122;2023-04-24T12:07:07;15.20;1.00
11944;DHT22;6031;50.220;10.122;2023-04-24T12:09:46;14.40;1.00
11944;DHT22;6031;50.220;10.122;2023-04-24T12:12:16;13.80;1.00
11944;DHT22;6031;50.220;10.122;2023-04-24T12:14:49;13.70;1.00
11944;DHT22;6031;50.220;10.122;2023-04-24T12:17:16;13.50;1.00
11944;DHT22;6031;50.220;10.122;2023-04-24T12:19:48;13.60;1.00
11944;DHT22;6031;50.220;10.122;2023-04-24T12:22:15;13.50;1.00
11944;DHT22;6031;50.220;10.122;2023-04-24T12:25:02;13.20;1.00
11944;DHT22;6031;50.220;10.122;2023-04-24T12:27:30;12.90;1.00
11944;DHT22;6031;50.220;10.122;2023-04-24T12:29:57;12.70;99.90
11944;DHT22;6031;50.220;10.122;2023-04-24T12:32:24;12.80;99.90
11944;DHT22;6031;50.220;10.122;2023-04-24T12:34:53;13.20;40.00
11944;DHT22;6031;50.220;10.122;2023-04-24T12:37:19;14.30;1.00
11944;DHT22;6031;50.220;10.122;2023-04-24T12:40:08;14.70;1.00
11944;DHT22;6031;50.220;10.122;2023-04-24T12:42:35;13.80;1.00
11944;DHT22;6031;50.220;10.122;2023-04-24T12:45:04;13.80;1.00
11944;DHT22;6031;50.220;10.122;2023-04-24T12:47:30;14.20;1.00
11944;DHT22;6031;50.220;10.122;2023-04-24T12:49:56;14.30;1.00
11944;DHT22;6031;50.220;10.122;2023-04-24T12:52:23;14.20;1.00
11944;DHT22;6031;50.220;10.122;2023-04-24T12:54:52;14.10;1.00
11944;DHT22;6031;50.220;10.122;2023-04-24T12:57:18;14.00;1.00
11944;DHT22;6031;50.220;10.122;2023-04-24T12:59:44;13.90;1.00
11944;DHT22;6031;50.220;10.122;2023-04-24T13:02:10;13.90;1.00
11944;DHT22;6031;50.220;10.122;2023-04-24T13:04:36;13.90;1.00
11944;DHT22;6031;50.220;10.122;2023-04-24T13:07:01;14.00;1.00
11944;DHT22;6031;50.220;10.122;2023-04-24T13:09:27;14.30;1.00
11944;DHT22;6031;50.220;10.122;2023-04-24T13:11:53;14.50;1.00
11944;DHT22;6031;50.220;10.122;2023-04-24T13:14:18;14.40;1.00
11944;DHT22;6031;50.220;10.122;2023-04-24T13:16:44;14.50;1.00
11944;DHT22;6031;50.220;10.122;2023-04-24T13:19:10;14.30;1.00
11944;DHT22;6031;50.220;10.122;2023-04-24T13:21:35;14.20;1.00
11944;DHT22;6031;50.220;10.122;2023-04-24T13:24:01;13.80;1.00
11944;DHT22;6031;50.220;10.122;2023-04-24T13:26:27;13.80;1.00
11944;DHT22;6031;50.220;10.122;2023-04-24T13:28:52;13.80;1.00
11944;DHT22;6031;50.220;10.122;2023-04-24T13:31:18;13.80;1.00
11944;DHT22;6031;50.220;10.122;2023-04-24T13:33:43;13.30;1.00
11944;DHT22;6031;50.220;10.122;2023-04-24T13:36:09;13.00;1.00
11944;DHT22;6031;50.220;10.122;2023-04-24T13:38:34;13.10;1.00
11944;DHT22;6031;50.220;10.122;2023-04-24T13:41:00;13.20;1.00
11944;DHT22;6031;50.220;10.122;2023-04-24T13:43:26;13.50;1.00
11944;DHT22;6031;50.220;10.122;2023-04-24T13:45:52;13.60;1.00
11944;DHT22;6031;50.220;10.122;2023-04-24T13:48:17;13.80;1.00
11944;DHT22;6031;50.220;10.122;2023-04-24T13:50:43;13.60;1.00
11944;DHT22;6031;50.220;10.122;2023-04-24T13:53:09;13.40;1.00
11944;DHT22;6031;50.220;10.122;2023-04-24T13:55:35;13.20;1.00
11944;DHT22;6031;50.220;10.122;2023-04-24T13:58:01;13.10;1.00
11944;DHT22;6031;50.220;10.122;2023-04-24T14:00:28;13.30;1.00
11944;DHT22;6031;50.220;10.122;2023-04-24T14:02:53;13.40;1.00
11944;DHT22;6031;50.220;10.122;2023-04-24T14:05:19;13.40;1.00
11944;DHT22;6031;50.220;10.122;2023-04-24T14:07:46;13.30;99.90
11944;DHT22;6031;50.220;10.122;2023-04-24T14:10:11;12.50;1.00
11944;DHT22;6031;50.220;10.122;2023-04-24T14:12:37;11.80;99.90
11944;DHT22;6031;50.220;10.122;2023-04-24T14:15:03;11.40;99.90
11944;DHT22;6031;50.220;10.122;2023-04-24T14:17:30;11.30;1.00
11944;DHT22;6031;50.220;10.122;2023-04-24T14:19:56;11.80;99.90
11944;DHT22;6031;50.220;10.122;2023-04-24T14:22:22;13.10;56.60
11944;DHT22;6031;50.220;10.122;2023-04-24T14:24:48;14.10;99.90
11944;DHT22;6031;50.220;10.122;2023-04-24T14:27:13;15.20;99.90
11944;DHT22;6031;50.220;10.122;2023-04-24T14:29:39;15.40;1.00
11944;DHT22;6031;50.220;10.122;2023-04-24T14:32:04;15.30;99.90
11944;DHT22;6031;50.220;10.122;2023-04-24T14:34:30;14.70;99.90
11944;DHT22;6031;50.220;10.122;2023-04-24T14:36:56;14.30;1.00
11944;DHT22;6031;50.220;10.122;2023-04-24T14:39:21;14.00;1.00
11944;DHT22;6031;50.220;10.122;2023-04-24T14:41:47;13.90;1.00
11944;DHT22;6031;50.220;10.122;2023-04-24T14:44:12;13.70;1.00
11944;DHT22;6031;50.220;10.122;2023-04-24T14:46:38;13.40;1.00
11944;DHT22;6031;50.220;10.122;2023-04-24T14:49:03;13.00;13.30
11944;DHT22;6031;50.220;10.122;2023-04-24T14:51:30;12.00;99.90
11944;DHT22;6031;50.220;10.122;2023-04-24T14:53:56;11.20;99.90
11944;DHT22;6031;50.220;10.122;2023-04-24T14:56:21;10.20;99.90
11944;DHT22;6031;50.220;10.122;2023-04-24T14:58:48;9.90;99.90
11944;DHT22;6031;50.220;10.122;2023-04-24T15:01:13;9.80;1.00
11944;DHT22;6031;50.220;10.122;2023-04-24T15:03:39;10.00;99.90
11944;DHT22;6031;50.220;10.122;2023-04-24T15:06:05;10.10;1.00
11944;DHT22;6031;50.220;10.122;2023-04-24T15:08:30;10.20;1.00
11944;DHT22;6031;50.220;10.122;2023-04-24T15:10:56;10.30;99.90
11944;DHT22;6031;50.220;10.122;2023-04-24T15:13:21;10.50;1.00
11944;DHT22;6031;50.220;10.122;2023-04-24T15:15:47;10.60;1.00
11944;DHT22;6031;50.220;10.122;2023-04-24T15:18:13;10.60;1.00
11944;DHT22;6031;50.220;10.122;2023-04-24T15:20:38;10.70;1.00
11944;DHT22;6031;50.220;10.122;2023-04-24T15:23:05;10.60;99.90
11944;DHT22;6031;50.220;10.122;2023-04-24T15:25:32;10.80;99.90
11944;DHT22;6031;50.220;10.122;2023-04-24T15:27:58;11.30;1.00
11944;DHT22;6031;50.220;10.122;2023-04-24T15:30:24;11.60;21.40
11944;DHT22;6031;50.220;10.122;2023-04-24T15:32:50;11.60;99.90
11944;DHT22;6031;50.220;10.122;2023-04-24T15:35:15;11.70;99.90
11944;DHT22;6031;50.220;10.122;2023-04-24T15:37:41;12.10;1.00
11944;DHT22;6031;50.220;10.122;2023-04-24T15:40:08;12.30;1.00
11944;DHT22;6031;50.220;10.122;2023-04-24T15:42:34;12.60;1.00
11944;DHT22;6031;50.220;10.122;2023-04-24T15:44:59;12.70;99.90
11944;DHT22;6031;50.220;10.122;2023-04-24T15:47:25;12.40;99.90
11944;DHT22;6031;50.220;10.122;2023-04-24T15:49:52;12.20;1.00
11944;DHT22;6031;50.220;10.122;2023-04-24T15:52:18;12.00;1.00